Time;durP1;ratioP1;P1;durP2;ratioP2;P2;SDS_P1;SDS_P2;PMS_P1;PMS_P2;Temp;Humidity;BMP_temperature;BMP_pressure;BME280_temperature;BME280_humidity;BME280_pressure;Samples;Min_cycle;Max_cycle;Signal;HPM_P1;HPM_P2
2024/01/07 00:01:26;;;;;;;11.07;9.97;;;;;;;2.72;84.09;100823.84;4996269;28;20278;-79
2024/01/07 00:03:53;;;;;;;11.50;10.30;;;;;;;2.76;85.37;100830.78;4997080;28;20207;-79
2024/01/07 00:06:19;;;;;;;11.63;10.53;;;;;;;2.82;85.71;100801.69;4996784;28;20208;-80
2024/01/07 00:08:47;;;;;;;11.23;10.23;;;;;;;2.89;84.63;100802.66;5003990;28;20762;-80
2024/01/07 00:11:13;;;;;;;11.70;10.47;;;;;;;2.89;83.30;100824.13;4995889;28;20700;-79
2024/01/07 00:13:40;;;;;;;11.30;10.30;;;;;;;2.84;82.90;100858.44;4996719;28;20994;-79
2024/01/07 00:16:07;;;;;;;12.07;9.83;;;;;;;2.77;83.45;100867.72;4996158;28;20207;-79
2024/01/07 00:18:34;;;;;;;11.93;10.50;;;;;;;2.78;82.96;100877.22;4996000;28;20259;-78
2024/01/07 00:21:01;;;;;;;11.20;10.10;;;;;;;2.72;83.12;100877.97;4992161;28;20233;-80
2024/01/07 00:23:27;;;;;;;11.37;9.43;;;;;;;2.73;83.20;100877.09;4988068;28;20236;-80
2024/01/07 00:25:54;;;;;;;9.97;8.97;;;;;;;2.74;82.79;100886.59;4995918;28;20212;-80
2024/01/07 00:28:21;;;;;;;10.20;9.20;;;;;;;2.75;82.70;100890.91;4996221;28;20249;-79
2024/01/07 00:30:47;;;;;;;10.97;9.90;;;;;;;2.75;83.12;100892.59;4989461;28;20235;-79
2024/01/07 00:33:13;;;;;;;10.43;9.43;;;;;;;2.77;82.76;100893.50;4996357;28;20263;-80
2024/01/07 00:35:41;;;;;;;12.40;11.20;;;;;;;2.72;82.49;100901.16;4996472;28;20287;-79
2024/01/07 00:38:07;;;;;;;11.03;9.93;;;;;;;2.73;82.25;100917.50;4994846;28;20208;-80
2024/01/07 00:40:34;;;;;;;10.77;9.80;;;;;;;2.67;82.59;100918.22;4995243;28;20244;-79
2024/01/07 00:43:00;;;;;;;10.30;8.80;;;;;;;2.67;83.09;100920.81;4996750;28;20274;-79
2024/01/07 00:45:26;;;;;;;10.50;9.60;;;;;;;2.60;83.13;100916.38;4996573;28;20208;-78
2024/01/07 00:47:54;;;;;;;11.43;10.23;;;;;;;2.61;82.95;100915.53;4995327;28;20212;-78
2024/01/07 00:50:21;;;;;;;11.27;10.17;;;;;;;2.60;83.00;100918.94;4995838;28;20636;-79
2024/01/07 00:52:48;;;;;;;10.20;9.30;;;;;;;2.58;82.54;100929.22;4996147;28;20305;-79
2024/01/07 00:55:15;;;;;;;9.73;8.87;;;;;;;2.51;83.41;100929.91;4992701;28;20200;-78
2024/01/07 00:57:42;;;;;;;10.13;9.23;;;;;;;2.53;83.14;100920.50;4994551;28;20701;-79
2024/01/07 01:00:09;;;;;;;10.10;9.20;;;;;;;2.49;83.22;100928.16;4996142;28;20221;-79
2024/01/07 01:02:36;;;;;;;11.57;10.03;;;;;;;2.45;83.45;100922.06;4996466;28;20296;-79
2024/01/07 01:05:02;;;;;;;11.60;10.60;;;;;;;2.45;84.00;100909.16;4983701;28;20215;-79
2024/01/07 01:07:29;;;;;;;12.30;10.97;;;;;;;2.40;84.33;100908.22;4985439;28;20270;-79
2024/01/07 01:09:56;;;;;;;12.20;11.10;;;;;;;2.43;84.57;100905.69;4997011;28;20704;-79
2024/01/07 01:12:23;;;;;;;10.93;10.03;;;;;;;2.47;83.96;100911.78;4996960;28;20223;-79
2024/01/07 01:14:49;;;;;;;11.53;10.53;;;;;;;2.49;83.74;100913.56;4997763;28;20204;-81
2024/01/07 01:17:15;;;;;;;13.00;10.73;;;;;;;2.41;83.77;100911.66;5000670;28;20209;-81
2024/01/07 01:19:42;;;;;;;12.07;10.87;;;;;;;2.44;84.05;100912.59;5000067;28;20204;-81
2024/01/07 01:22:08;;;;;;;11.77;10.60;;;;;;;2.49;83.83;100910.97;4984528;28;20375;-81
2024/01/07 01:24:34;;;;;;;12.03;10.80;;;;;;;2.50;83.37;100917.88;4988833;28;21070;-80
2024/01/07 01:27:02;;;;;;;10.30;9.40;;;;;;;2.56;82.64;100940.34;5000118;28;20205;-81
2024/01/07 01:29:28;;;;;;;11.80;10.47;;;;;;;2.48;82.36;100955.63;4999740;28;20234;-81
2024/01/07 01:31:55;;;;;;;10.83;9.73;;;;;;;2.44;82.60;100961.56;5001017;28;20224;-81
2024/01/07 01:34:21;;;;;;;11.30;10.30;;;;;;;2.44;82.56;100971.84;4999380;28;20216;-81
2024/01/07 01:36:47;;;;;;;11.20;10.10;;;;;;;2.44;82.53;100971.84;5000441;28;20213;-81
2024/01/07 01:39:14;;;;;;;10.77;9.73;;;;;;;2.46;82.55;100979.59;4999939;28;20205;-82
2024/01/07 01:41:40;;;;;;;11.67;10.57;;;;;;;2.45;82.88;100970.16;4999871;28;20283;-82
2024/01/07 01:44:08;;;;;;;12.57;11.37;;;;;;;2.42;82.40;100994.16;5000363;28;20208;-81
2024/01/07 01:46:35;;;;;;;12.90;11.60;;;;;;;2.40;82.16;101008.69;4998865;28;20207;-81
2024/01/07 01:49:02;;;;;;;12.30;11.03;;;;;;;2.43;82.24;101007.88;5001944;28;20621;-81
2024/01/07 01:51:28;;;;;;;12.73;11.53;;;;;;;2.40;82.88;101006.13;4996830;28;20203;-80
2024/01/07 01:53:57;;;;;;;11.97;10.70;;;;;;;2.41;82.11;101005.25;4994536;28;20200;-82
2024/01/07 01:56:26;;;;;;;12.87;10.33;;;;;;;2.31;81.90;101019.63;4999833;28;20211;-80
2024/01/07 01:58:53;;;;;;;10.30;9.00;;;;;;;2.27;80.82;101041.00;5000090;28;20255;-81
2024/01/07 02:01:20;;;;;;;11.17;10.20;;;;;;;2.22;81.52;101052.00;5000127;28;20299;-81
2024/01/07 02:03:47;;;;;;;10.83;9.83;;;;;;;2.21;81.33;101055.44;4999756;28;20223;-82
2024/01/07 02:06:13;;;;;;;10.87;9.77;;;;;;;2.24;80.99;101065.81;4997395;28;20265;-81
2024/01/07 02:08:40;;;;;;;11.07;9.57;;;;;;;2.11;81.96;101075.81;4998707;28;20213;-81
2024/01/07 02:11:17;;;;;;;10.90;9.80;;;;;;;2.06;81.77;101067.09;4996336;28;20206;-82
2024/01/07 02:13:43;;;;;;;10.20;9.30;;;;;;;2.07;81.45;101063.69;4995869;28;20219;-82
2024/01/07 02:16:10;;;;;;;10.73;9.63;;;;;;;2.11;81.87;101056.91;5000206;28;20247;-83
2024/01/07 02:18:38;;;;;;;10.37;9.30;;;;;;;2.16;82.40;101056.19;4999038;28;20207;-82
2024/01/07 02:21:05;;;;;;;10.47;9.10;;;;;;;2.16;81.22;101061.34;4999205;28;20229;-82
2024/01/07 02:23:31;;;;;;;9.30;8.50;;;;;;;1.98;82.27;101076.31;5000189;28;20246;-81
2024/01/07 02:25:59;;;;;;;11.17;8.47;;;;;;;2.09;82.55;101068.88;5001758;28;20231;-82
2024/01/07 02:28:25;;;;;;;8.90;8.10;;;;;;;2.06;81.62;101073.94;5000507;28;20207;-82
2024/01/07 02:30:51;;;;;;;8.40;7.50;;;;;;;2.04;81.13;101085.91;5001257;28;20215;-82
2024/01/07 02:33:18;;;;;;;9.43;7.77;;;;;;;1.99;81.70;101078.94;4998902;28;20225;-82
2024/01/07 02:35:44;;;;;;;8.07;7.07;;;;;;;2.08;81.69;101075.75;5000321;28;20239;-82
2024/01/07 02:38:10;;;;;;;8.47;7.70;;;;;;;2.05;81.61;101085.09;4999967;28;20204;-82
2024/01/07 02:40:37;;;;;;;7.57;6.97;;;;;;;1.99;80.95;101088.34;5000599;28;20625;-81
2024/01/07 02:43:05;;;;;;;7.77;7.10;;;;;;;1.93;80.13;101125.09;5008282;28;20228;-82
2024/01/07 02:45:31;;;;;;;7.63;6.90;;;;;;;1.84;80.24;101127.41;5004534;28;20216;-79
2024/01/07 02:47:57;;;;;;;8.23;7.27;;;;;;;1.92;80.23;101132.78;5015451;28;20187;-81
2024/01/07 02:50:24;;;;;;;8.23;7.10;;;;;;;1.94;80.67;101141.41;5017101;28;20187;-81
2024/01/07 02:52:50;;;;;;;8.07;6.97;;;;;;;1.86;80.88;101148.94;5004505;28;20259;-81
2024/01/07 02:55:16;;;;;;;11.53;7.40;;;;;;;1.91;80.57;101147.38;5003578;28;20188;-81
2024/01/07 02:57:43;;;;;;;6.70;6.10;;;;;;;1.89;80.30;101155.88;5016803;28;20185;-80
2024/01/07 03:00:11;;;;;;;7.93;6.97;;;;;;;1.91;79.92;101167.97;5017152;28;20219;-81
2024/01/07 03:02:38;;;;;;;8.93;7.40;;;;;;;1.87;79.78;101171.28;5016831;28;20244;-81
2024/01/07 03:05:04;;;;;;;7.63;6.93;;;;;;;1.87;80.38;101175.56;5015473;28;20188;-80
2024/01/07 03:07:31;;;;;;;8.10;7.30;;;;;;;1.87;79.99;101171.28;5001601;28;20674;-80
2024/01/07 03:09:57;;;;;;;7.83;7.07;;;;;;;1.81;80.90;101167.66;5002818;28;20265;-80
2024/01/07 03:12:23;;;;;;;7.97;7.27;;;;;;;1.81;80.98;101158.25;4993621;28;20213;-80
2024/01/07 03:14:50;;;;;;;9.30;7.60;;;;;;;1.84;80.73;101157.44;4993874;28;20275;-81
2024/01/07 03:17:17;;;;;;;9.10;8.20;;;;;;;1.85;81.07;101161.78;4993233;28;20203;-80
2024/01/07 03:19:44;;;;;;;8.10;7.17;;;;;;;1.82;81.35;101153.94;4993899;28;20212;-80
2024/01/07 03:22:10;;;;;;;7.77;7.07;;;;;;;1.81;81.67;101149.66;4988153;28;20288;-80
2024/01/07 03:24:36;;;;;;;7.93;7.23;;;;;;;1.82;81.55;101146.22;4984478;28;20196;-81
2024/01/07 03:27:03;;;;;;;8.47;7.67;;;;;;;1.68;82.29;101133.84;4996985;28;20286;-81
2024/01/07 03:29:29;;;;;;;8.43;7.63;;;;;;;1.68;82.34;101131.25;4993574;28;20730;-80
2024/01/07 03:31:55;;;;;;;9.23;7.50;;;;;;;1.71;81.64;101128.78;5003026;28;20284;-81
2024/01/07 03:34:23;;;;;;;8.50;7.50;;;;;;;1.71;80.82;101133.94;4995062;28;20204;-79
2024/01/07 03:36:49;;;;;;;8.57;7.57;;;;;;;1.76;81.21;101144.34;5006877;28;20209;-81
2024/01/07 03:39:16;;;;;;;10.50;7.53;;;;;;;1.78;80.91;101153.88;5003483;28;20204;-82
2024/01/07 03:41:42;;;;;;;8.20;7.00;;;;;;;1.76;80.91;101163.25;5000960;28;20322;-80
2024/01/07 03:44:08;;;;;;;8.10;7.30;;;;;;;1.73;80.55;101170.88;4992000;28;20628;-81
2024/01/07 03:46:35;;;;;;;8.17;7.47;;;;;;;1.69;81.34;101171.63;4993642;28;20706;-81
2024/01/07 03:49:01;;;;;;;6.90;6.20;;;;;;;1.63;80.84;101181.75;4994128;28;20205;-81
2024/01/07 03:51:29;;;;;;;10.77;6.67;;;;;;;1.70;81.01;101175.06;4985361;28;20196;-81
2024/01/07 03:53:55;;;;;;;7.13;6.53;;;;;;;1.65;81.27;101174.06;4983041;28;20240;-81
2024/01/07 03:56:21;;;;;;;7.17;6.57;;;;;;;1.73;80.70;101172.59;4994927;28;20549;-82
2024/01/07 03:58:48;;;;;;;7.37;5.63;;;;;;;1.62;79.81;101186.84;4995506;28;20207;-81
2024/01/07 04:01:17;;;;;;;6.53;5.87;;;;;;;1.65;79.60;101208.41;4999537;28;20204;-82
2024/01/07 04:03:43;;;;;;;5.50;5.00;;;;;;;1.59;79.49;101237.38;4999021;28;20278;-82
2024/01/07 04:06:09;;;;;;;5.20;4.70;;;;;;;1.48;78.34;101249.03;4998946;28;20214;-81
2024/01/07 04:08:37;;;;;;;5.70;5.13;;;;;;;1.52;78.98;101261.16;4998583;28;20267;-80
2024/01/07 04:11:04;;;;;;;5.63;4.73;;;;;;;1.56;79.16;101272.44;4995670;28;20208;-81
2024/01/07 04:13:30;;;;;;;5.87;4.70;;;;;;;1.56;79.10;101264.72;4996035;28;20234;-80
2024/01/07 04:15:56;;;;;;;5.47;4.97;;;;;;;1.55;79.37;101278.41;4995933;28;20231;-81
2024/01/07 04:18:22;;;;;;;5.87;5.37;;;;;;;1.56;78.95;101288.72;4996187;28;20278;-81
2024/01/07 04:20:49;;;;;;;5.80;5.20;;;;;;;1.52;79.67;101291.16;4997976;28;20211;-82
2024/01/07 04:23:15;;;;;;;5.40;4.90;;;;;;;1.52;79.27;101296.31;4985560;28;20279;-81
2024/01/07 04:25:44;;;;;;;5.10;4.57;;;;;;;1.53;78.85;101293.81;4995808;28;20265;-82
2024/01/07 04:28:10;;;;;;;6.00;5.40;;;;;;;1.50;78.83;101298.84;4999161;28;20212;-82
2024/01/07 04:30:37;;;;;;;5.30;4.80;;;;;;;1.54;78.69;101303.25;4998855;28;20340;-82
2024/01/07 04:33:04;;;;;;;5.03;4.63;;;;;;;1.51;78.58;101310.03;4999284;28;20219;-81
2024/01/07 04:35:30;;;;;;;5.37;4.83;;;;;;;1.54;78.07;101328.13;4997899;28;20246;-81
2024/01/07 04:37:56;;;;;;;4.20;3.80;;;;;;;1.46;78.51;101334.72;4998147;28;20208;-82
2024/01/07 04:40:23;;;;;;;3.90;3.60;;;;;;;1.38;78.76;101330.19;5000125;28;20227;-82
2024/01/07 04:42:51;;;;;;;4.90;3.37;;;;;;;1.43;76.93;101350.03;4995812;28;20847;-82
2024/01/07 04:45:17;;;;;;;3.73;3.43;;;;;;;1.43;76.68;101368.94;4998355;28;20208;-81
2024/01/07 04:47:43;;;;;;;2.87;2.67;;;;;;;1.45;76.07;101390.44;4997540;28;20202;-81
2024/01/07 04:50:10;;;;;;;3.67;3.27;;;;;;;1.46;76.31;101397.31;4996502;28;20203;-80
2024/01/07 04:52:36;;;;;;;4.00;3.30;;;;;;;1.47;76.34;101405.94;4989566;28;20283;-81
2024/01/07 04:55:03;;;;;;;2.90;2.70;;;;;;;1.50;75.96;101417.19;4995440;28;20569;-81
2024/01/07 04:57:29;;;;;;;3.57;3.10;;;;;;;1.52;76.43;101417.25;4997177;28;20202;-81
2024/01/07 04:59:57;;;;;;;3.37;3.07;;;;;;;1.38;76.40;101422.78;4997089;28;20207;-81
2024/01/07 05:02:23;;;;;;;3.23;2.93;;;;;;;1.40;76.06;101425.41;4996254;28;20227;-80
2024/01/07 05:04:49;;;;;;;4.30;2.93;;;;;;;1.46;75.17;101448.78;4996615;28;20230;-81
2024/01/07 05:07:16;;;;;;;2.90;2.60;;;;;;;1.46;74.47;101458.19;5004239;28;20211;-81
2024/01/07 05:09:42;;;;;;;3.70;2.93;;;;;;;1.48;74.17;101484.84;4996826;28;20251;-81
2024/01/07 05:12:09;;;;;;;3.77;2.93;;;;;;;1.48;74.19;101492.56;4987967;28;20219;-82
2024/01/07 05:14:36;;;;;;;3.87;3.27;;;;;;;1.43;74.30;101512.09;4995779;28;20258;-81
2024/01/07 05:17:05;;;;;;;2.93;2.57;;;;;;;1.45;74.11;101515.59;4994082;28;20265;-81
2024/01/07 05:19:31;;;;;;;3.70;3.23;;;;;;;1.40;74.56;101530.88;4997918;28;20200;-81
2024/01/07 05:21:59;;;;;;;2.90;2.63;;;;;;;1.41;74.27;101534.31;5005362;28;20246;-81
2024/01/07 05:24:25;;;;;;;4.07;3.10;;;;;;;1.32;73.17;101564.03;5007802;28;20265;-82
2024/01/07 05:26:51;;;;;;;3.83;2.80;;;;;;;1.35;73.34;101576.16;4995614;28;20258;-79
2024/01/07 05:29:18;;;;;;;2.90;2.70;;;;;;;1.31;73.14;101582.88;4997093;28;20334;-81
2024/01/07 05:31:44;;;;;;;2.53;2.30;;;;;;;1.14;73.32;101591.66;4995433;28;20282;-80
2024/01/07 05:34:12;;;;;;;3.03;2.73;;;;;;;1.20;73.79;101573.88;4989159;28;20584;-81
2024/01/07 05:36:38;;;;;;;3.20;2.90;;;;;;;1.26;74.32;101575.81;4998734;28;20210;-82
2024/01/07 05:39:06;;;;;;;2.67;2.47;;;;;;;1.25;74.43;101577.50;4998262;28;20235;-79
2024/01/07 05:41:33;;;;;;;3.57;3.07;;;;;;;1.32;74.05;101576.03;4993938;28;20207;-81
2024/01/07 05:43:59;;;;;;;3.50;2.87;;;;;;;1.31;74.09;101577.75;4997229;28;20265;-81
2024/01/07 05:46:26;;;;;;;4.13;2.70;;;;;;;1.27;73.46;101590.41;4994516;28;20207;-81
2024/01/07 05:48:52;;;;;;;2.70;2.50;;;;;;;1.24;72.39;101600.59;4993578;28;20218;-81
2024/01/07 05:51:20;;;;;;;2.60;2.40;;;;;;;1.17;72.35;101627.78;4992730;28;20208;-81
2024/01/07 05:53:46;;;;;;;2.60;2.40;;;;;;;1.19;72.19;101636.44;4977342;28;20314;-82
2024/01/07 05:56:13;;;;;;;2.60;2.40;;;;;;;1.21;72.17;101654.47;4986349;28;20207;-81
2024/01/07 05:58:39;;;;;;;3.17;2.37;;;;;;;1.21;72.89;101652.81;4995681;28;20218;-81
2024/01/07 06:01:07;;;;;;;2.53;2.33;;;;;;;1.07;72.13;101661.66;4999230;28;20295;-82
2024/01/07 06:03:34;;;;;;;3.27;2.57;;;;;;;1.13;71.34;101665.34;4999997;28;20320;-81
2024/01/07 06:06:01;;;;;;;2.87;2.30;;;;;;;0.97;71.63;101689.56;4994099;28;20213;-81
2024/01/07 06:08:28;;;;;;;2.70;2.50;;;;;;;1.10;70.72;101693.50;4997153;28;20211;-81
2024/01/07 06:10:55;;;;;;;3.30;2.97;;;;;;;1.13;71.57;101708.16;4996987;28;20211;-82
2024/01/07 06:13:21;;;;;;;4.27;2.50;;;;;;;1.11;70.67;101713.28;4997180;28;20227;-81
2024/01/07 06:15:47;;;;;;;2.60;2.40;;;;;;;1.06;71.72;101719.03;4993908;28;20211;-81
2024/01/07 06:18:14;;;;;;;4.90;2.70;;;;;;;0.99;70.78;101723.94;4985601;28;20732;-81
2024/01/07 06:20:40;;;;;;;2.70;2.50;;;;;;;1.04;70.61;101730.97;4994504;28;20207;-81
2024/01/07 06:23:06;;;;;;;2.57;2.37;;;;;;;0.99;71.38;101736.78;4977943;28;20224;-81
2024/01/07 06:25:35;;;;;;;2.60;2.40;;;;;;;0.98;70.47;101755.59;4993686;28;20575;-82
2024/01/07 06:28:01;;;;;;;2.70;2.50;;;;;;;0.97;70.27;101773.50;4993929;28;20807;-81
2024/01/07 06:30:28;;;;;;;2.83;2.63;;;;;;;0.96;69.70;101784.63;4999717;28;20215;-80
2024/01/07 06:32:54;;;;;;;2.43;2.23;;;;;;;0.92;69.64;101795.59;4995932;28;20219;-82
2024/01/07 06:35:20;;;;;;;3.03;2.80;;;;;;;0.90;70.17;101800.66;4998840;28;20297;-81
2024/01/07 06:37:47;;;;;;;2.67;2.47;;;;;;;0.89;70.63;101805.72;4997916;28;20208;-81
2024/01/07 06:40:13;;;;;;;3.43;3.00;;;;;;;0.97;70.29;101812.06;4994252;28;20670;-81
2024/01/07 06:42:43;;;;;;;2.80;2.60;;;;;;;1.01;70.33;101816.53;4993900;28;20231;-81
2024/01/07 06:45:10;;;;;;;3.77;2.53;;;;;;;0.96;69.77;101821.50;4994169;28;20231;-81
2024/01/07 06:47:36;;;;;;;3.93;2.90;;;;;;;0.97;70.30;101824.94;4994897;28;20677;-80
2024/01/07 06:50:04;;;;;;;3.47;3.17;;;;;;;0.91;70.82;101817.88;4993696;28;20219;-80
2024/01/07 06:52:31;;;;;;;3.30;3.00;;;;;;;0.98;69.96;101824.13;4993306;28;20709;-81
2024/01/07 06:54:57;;;;;;;3.60;3.30;;;;;;;0.82;70.32;101829.44;4984795;28;20239;-81
2024/01/07 06:57:23;;;;;;;4.37;3.13;;;;;;;0.82;69.97;101832.88;4993556;28;20670;-82
2024/01/07 06:59:51;;;;;;;3.23;2.93;;;;;;;0.79;70.35;101836.22;4993500;28;20215;-81
2024/01/07 07:02:18;;;;;;;5.90;3.20;;;;;;;0.86;70.01;101849.31;4986420;28;20223;-82
2024/01/07 07:04:44;;;;;;;3.33;3.03;;;;;;;0.81;69.01;101863.66;4985408;28;20208;-80
2024/01/07 07:07:10;;;;;;;3.13;2.83;;;;;;;0.74;69.48;101876.22;4976529;28;20671;-81
2024/01/07 07:09:37;;;;;;;3.67;3.33;;;;;;;0.74;69.94;101876.22;4993275;28;20204;-81
2024/01/07 07:12:03;;;;;;;5.00;4.60;;;;;;;0.67;70.19;101884.47;4992602;28;20231;-82
2024/01/07 07:14:30;;;;;;;3.43;3.13;;;;;;;0.72;69.95;101887.25;5001272;28;20254;-81
2024/01/07 07:16:57;;;;;;;3.40;3.10;;;;;;;0.81;70.74;101876.50;4992350;28;20493;-81
2024/01/07 07:19:24;;;;;;;3.13;2.90;;;;;;;0.77;70.56;101870.34;4993415;28;20207;-82
2024/01/07 07:21:50;;;;;;;3.43;3.13;;;;;;;0.74;71.04;101883.94;4993225;28;20233;-81
2024/01/07 07:24:16;;;;;;;3.80;3.40;;;;;;;0.77;70.74;101878.03;4989065;28;20224;-81
2024/01/07 07:26:43;;;;;;;2.70;2.50;;;;;;;0.80;70.64;101880.78;4981436;28;20676;-81
2024/01/07 07:29:10;;;;;;;3.73;2.97;;;;;;;0.77;69.98;101896.94;4994659;28;20635;-80
2024/01/07 07:31:37;;;;;;;3.43;3.13;;;;;;;0.81;70.22;101900.50;4993409;28;20232;-80
2024/01/07 07:34:06;;;;;;;3.50;3.20;;;;;;;0.85;69.83;101899.81;4994088;28;20232;-81
2024/01/07 07:36:33;;;;;;;3.80;3.07;;;;;;;0.82;69.56;101899.72;4997568;28;20200;-82
2024/01/07 07:38:59;;;;;;;3.30;3.00;;;;;;;0.82;69.88;101904.84;4997324;28;20242;-82
2024/01/07 07:41:25;;;;;;;5.27;3.63;;;;;;;0.79;69.73;101918.44;4997001;28;20277;-81
2024/01/07 07:43:52;;;;;;;3.73;2.90;;;;;;;0.72;69.96;101911.25;4997857;28;20231;-81
2024/01/07 07:46:18;;;;;;;3.50;3.20;;;;;;;0.78;69.74;101914.09;4996642;28;20237;-81
2024/01/07 07:48:45;;;;;;;7.10;3.80;;;;;;;0.74;69.97;101921.63;4996914;28;20203;-81
2024/01/07 07:51:12;;;;;;;3.57;3.27;;;;;;;0.76;69.06;101931.16;4998123;28;20211;-82
2024/01/07 07:53:39;;;;;;;4.67;3.60;;;;;;;0.76;68.88;101948.28;5007370;28;20243;-81
2024/01/07 07:56:08;;;;;;;4.63;2.93;;;;;;;0.74;68.88;101955.03;4989250;28;20208;-82
2024/01/07 07:58:34;;;;;;;3.40;3.10;;;;;;;0.76;69.65;101961.13;4990475;28;20671;-80
2024/01/07 08:01:01;;;;;;;3.83;3.17;;;;;;;0.81;69.25;101962.19;4998889;28;20270;-81
2024/01/07 08:03:28;;;;;;;4.23;3.43;;;;;;;0.83;68.58;101975.13;4998429;28;20662;-82
2024/01/07 08:05:54;;;;;;;5.90;3.60;;;;;;;0.78;69.17;101973.22;4997443;28;20211;-81
2024/01/07 08:08:22;;;;;;;3.90;3.50;;;;;;;0.79;69.47;101977.56;4997385;28;20204;-82
2024/01/07 08:10:48;;;;;;;4.03;3.57;;;;;;;0.75;70.32;101970.53;4998422;28;20627;-82
2024/01/07 08:13:15;;;;;;;3.60;3.20;;;;;;;0.82;69.34;101973.38;4998980;28;20226;-81
2024/01/07 08:15:41;;;;;;;4.17;3.77;;;;;;;0.82;68.77;101992.22;4996936;28;20258;-80
2024/01/07 08:18:08;;;;;;;3.80;3.40;;;;;;;0.82;69.22;101993.94;4996733;28;20216;-81
2024/01/07 08:20:34;;;;;;;4.37;3.97;;;;;;;0.85;68.99;101999.19;4996726;28;20212;-82
2024/01/07 08:23:01;;;;;;;4.00;3.60;;;;;;;0.81;70.01;102005.88;4997960;28;20235;-82
2024/01/07 08:25:28;;;;;;;4.43;4.03;;;;;;;0.78;70.74;101998.06;4986492;28;20204;-83
2024/01/07 08:27:55;;;;;;;4.73;4.33;;;;;;;0.86;70.18;101980.41;4994033;28;20666;-82
2024/01/07 08:30:21;;;;;;;4.93;3.87;;;;;;;0.88;70.54;101978.78;5005679;28;20610;-80
2024/01/07 08:32:48;;;;;;;5.80;4.03;;;;;;;0.88;69.90;101983.94;4995864;28;20605;-81
2024/01/07 08:35:14;;;;;;;5.27;4.07;;;;;;;0.87;70.32;101988.16;4995999;28;20218;-82
2024/01/07 08:37:40;;;;;;;4.90;4.13;;;;;;;0.89;69.97;101989.16;4995701;28;20221;-81
2024/01/07 08:40:09;;;;;;;4.53;4.10;;;;;;;0.89;69.52;101988.25;4995933;28;20208;-79
2024/01/07 08:42:37;;;;;;;4.40;3.83;;;;;;;0.87;70.74;101995.88;4996398;28;20258;-82
2024/01/07 08:45:04;;;;;;;3.90;3.60;;;;;;;0.91;70.43;101994.34;4996330;28;20266;-81
2024/01/07 08:47:32;;;;;;;4.03;3.47;;;;;;;0.85;70.21;101992.34;4995342;28;20247;-82
2024/01/07 08:49:59;;;;;;;4.13;3.73;;;;;;;0.88;71.08;101987.38;4995836;28;20214;-82
2024/01/07 08:52:25;;;;;;;4.50;4.10;;;;;;;0.91;70.41;101987.53;4995771;28;20246;-82
2024/01/07 08:54:51;;;;;;;5.03;4.53;;;;;;;0.96;70.67;101987.72;4989781;28;20292;-80
2024/01/07 08:57:19;;;;;;;4.20;3.80;;;;;;;0.95;70.42;101979.13;5002563;28;20266;-81
2024/01/07 08:59:47;;;;;;;5.53;4.50;;;;;;;0.95;70.04;101984.28;5004250;28;20221;-82
2024/01/07 09:02:14;;;;;;;4.90;4.40;;;;;;;0.96;69.85;102003.16;4995453;28;20231;-81
2024/01/07 09:04:40;;;;;;;4.90;4.10;;;;;;;0.95;70.75;102006.50;4996728;28;20232;-82
2024/01/07 09:07:07;;;;;;;5.00;4.60;;;;;;;0.94;69.97;102009.91;4998218;28;20208;-82
2024/01/07 09:09:34;;;;;;;4.87;3.80;;;;;;;0.93;70.53;102010.72;4998210;28;20203;-82
2024/01/07 09:12:00;;;;;;;4.20;3.90;;;;;;;0.90;71.02;102011.47;4995329;28;20816;-83
2024/01/07 09:14:27;;;;;;;5.20;4.70;;;;;;;0.98;71.17;102007.53;4996071;28;20211;-83
2024/01/07 09:16:55;;;;;;;5.40;4.83;;;;;;;1.03;71.26;102001.72;4995271;28;20586;-82
2024/01/07 09:19:21;;;;;;;4.67;4.17;;;;;;;1.02;70.69;102012.84;4996225;28;20220;-81
2024/01/07 09:21:48;;;;;;;4.10;3.67;;;;;;;0.93;69.90;102033.84;4995860;28;20254;-81
2024/01/07 09:24:15;;;;;;;6.07;4.07;;;;;;;0.92;71.37;102027.84;5000898;28;20226;-82
2024/01/07 09:26:41;;;;;;;4.63;4.23;;;;;;;0.95;71.26;102012.56;4989989;28;20204;-82
2024/01/07 09:29:07;;;;;;;4.80;4.30;;;;;;;0.99;71.39;102014.47;4997065;28;20220;-80
2024/01/07 09:31:34;;;;;;;6.13;4.87;;;;;;;1.03;71.74;102007.78;4994627;28;20203;-82
2024/01/07 09:34:03;;;;;;;5.23;4.73;;;;;;;1.03;71.57;102009.44;4995430;28;20222;-83
2024/01/07 09:36:30;;;;;;;7.20;6.50;;;;;;;1.01;71.97;102006.78;4995251;28;20204;-83
2024/01/07 09:38:56;;;;;;;6.43;5.70;;;;;;;1.06;71.84;101996.72;5008559;28;20200;-81
2024/01/07 09:41:23;;;;;;;5.37;4.87;;;;;;;1.03;71.35;102002.63;4996459;28;20221;-83
2024/01/07 09:43:50;;;;;;;4.30;4.00;;;;;;;1.05;70.58;102007.81;4995322;28;20235;-83
2024/01/07 09:46:17;;;;;;;4.60;4.20;;;;;;;1.07;71.56;102011.34;4995603;28;20211;-82
2024/01/07 09:48:43;;;;;;;4.13;3.83;;;;;;;1.06;71.98;102010.47;4996661;28;20218;-83
2024/01/07 09:51:12;;;;;;;4.90;4.30;;;;;;;1.05;71.91;102005.25;4996380;28;20216;-83
2024/01/07 09:53:40;;;;;;;4.50;4.10;;;;;;;1.05;71.08;102006.16;4994582;28;20241;-83
2024/01/07 09:56:14;;;;;;;4.63;3.63;;;;;;;1.08;71.28;102005.41;4995770;28;20228;-82
2024/01/07 09:58:42;;;;;;;4.53;3.80;;;;;;;1.05;70.66;102020.66;4995852;28;20203;-83
2024/01/07 10:01:09;;;;;;;4.90;4.50;;;;;;;1.06;70.93;102025.88;4994963;28;20519;-82
2024/01/07 10:03:36;;;;;;;5.23;4.80;;;;;;;1.07;71.73;102027.66;4994699;28;20656;-81
2024/01/07 10:06:02;;;;;;;5.27;4.17;;;;;;;1.04;71.40;102024.94;4995760;28;20241;-82
2024/01/07 10:08:30;;;;;;;3.57;3.27;;;;;;;1.09;71.05;102023.47;4994463;28;20219;-81
2024/01/07 10:10:58;;;;;;;4.37;3.97;;;;;;;1.05;72.19;102025.81;4994464;28;20663;-82
2024/01/07 10:13:25;;;;;;;3.63;3.33;;;;;;;1.03;71.68;102023.19;4994261;28;20289;-83
2024/01/07 10:15:52;;;;;;;4.20;3.50;;;;;;;0.99;71.40;102027.31;4995766;28;20208;-82
2024/01/07 10:18:19;;;;;;;4.30;3.90;;;;;;;1.03;71.43;102027.44;4994106;28;20206;-83
2024/01/07 10:20:45;;;;;;;3.40;3.10;;;;;;;0.99;72.23;102019.59;4994326;28;20612;-83
2024/01/07 10:23:12;;;;;;;3.70;3.40;;;;;;;1.04;71.24;102008.66;4994127;28;20746;-82
2024/01/07 10:25:40;;;;;;;3.80;3.47;;;;;;;1.04;71.01;102016.34;4982688;28;20208;-83
2024/01/07 10:28:06;;;;;;;3.80;3.50;;;;;;;0.99;71.33;102019.59;4982980;28;20204;-82
2024/01/07 10:30:49;;;;;;;4.97;4.27;;;;;;;1.04;71.43;102019.81;4996111;28;20203;-81
2024/01/07 10:33:24;;;;;;;4.93;4.43;;;;;;;1.06;71.83;102017.31;4994734;28;20228;-83
2024/01/07 10:36:00;;;;;;;5.57;5.07;;;;;;;1.09;71.77;102013.19;4996233;28;20203;-82
2024/01/07 10:38:29;;;;;;;4.77;4.27;;;;;;;1.12;72.06;102009.88;4996572;28;20264;-83
2024/01/07 10:41:01;;;;;;;4.87;4.27;;;;;;;1.12;71.40;102013.31;4996472;28;20208;-84
2024/01/07 10:43:30;;;;;;;5.57;5.03;;;;;;;1.12;70.83;102018.44;4999674;28;20278;-84
2024/01/07 10:46:04;;;;;;;8.77;6.13;;;;;;;1.14;71.59;102024.53;5003177;28;20934;-83
2024/01/07 10:48:31;;;;;;;6.60;5.83;;;;;;;1.18;71.22;102020.44;5003751;28;20222;-83
2024/01/07 10:51:04;;;;;;;6.47;5.73;;;;;;;1.19;71.27;102019.63;4996382;28;20291;-83
2024/01/07 10:53:39;;;;;;;5.00;4.47;;;;;;;1.17;71.63;102023.81;4995161;28;20235;-84
2024/01/07 10:56:22;;;;;;;5.83;4.90;;;;;;;1.23;71.77;102020.63;4980204;28;20678;-81
2024/01/07 10:58:56;;;;;;;5.20;4.70;;;;;;;1.28;71.73;102014.00;4989005;28;20213;-83
2024/01/07 11:01:25;;;;;;;3.67;3.37;;;;;;;1.31;72.24;102008.97;4995389;28;20609;-82
2024/01/07 11:04:00;;;;;;;3.50;3.20;;;;;;;1.31;73.06;102007.31;4989245;28;20777;-82
2024/01/07 11:06:32;;;;;;;4.72;4.30;;;;;;;1.36;72.04;101999.78;4993462;28;20432;-82
2024/01/07 11:09:03;;;;;;;3.67;3.37;;;;;;;1.42;71.53;102010.34;4994271;28;20207;-82
2024/01/07 11:11:41;;;;;;;4.43;3.43;;;;;;;1.45;71.58;102014.72;4995663;28;20207;-81
2024/01/07 11:14:39;;;;;;;3.90;3.60;;;;;;;1.38;71.42;102024.75;4995104;28;20669;-82
2024/01/07 11:17:06;;;;;;;5.23;2.73;;;;;;;1.41;71.62;102024.03;5001630;28;20269;-82
2024/01/07 11:19:36;;;;;;;5.00;2.83;;;;;;;1.43;71.21;102032.69;4996472;28;20207;-82
2024/01/07 11:22:27;;;;;;;3.63;3.30;;;;;;;1.44;71.96;102023.28;4996375;28;20225;-82
2024/01/07 11:24:55;;;;;;;3.70;3.40;;;;;;;1.48;72.65;102018.31;4990278;28;20232;-81
2024/01/07 11:27:24;;;;;;;3.63;3.30;;;;;;;1.56;72.46;101993.78;4985230;28;20208;-82
2024/01/07 11:29:56;;;;;;;4.33;3.50;;;;;;;1.59;71.83;101993.06;4995697;28;20239;-82
2024/01/07 11:32:25;;;;;;;4.03;3.63;;;;;;;1.64;71.44;102003.53;5002649;28;20229;-82